sensor_id;sensor_type;location;lat;lon;timestamp;P1;durP1;ratioP1;P2;durP2;ratioP2
32319;SDS011;19080;51.750;5.888;2023-03-23T00:01:05;4.90;;;3.35;;
32319;SDS011;19080;51.750;5.888;2023-03-23T00:03:32;3.75;;;2.75;;
32319;SDS011;19080;51.750;5.888;2023-03-23T00:05:58;6.68;;;3.40;;
32319;SDS011;19080;51.750;5.888;2023-03-23T00:08:30;6.00;;;2.90;;
32319;SDS011;19080;51.750;5.888;2023-03-23T00:10:56;6.93;;;3.13;;
32319;SDS011;19080;51.750;5.888;2023-03-23T00:13:23;5.47;;;3.33;;
32319;SDS011;19080;51.750;5.888;2023-03-23T00:15:50;7.22;;;2.97;;
32319;SDS011;19080;51.750;5.888;2023-03-23T00:18:19;4.22;;;2.95;;
32319;SDS011;19080;51.750;5.888;2023-03-23T00:20:49;6.03;;;2.95;;
32319;SDS011;19080;51.750;5.888;2023-03-23T00:23:20;4.80;;;2.55;;
32319;SDS011;19080;51.750;5.888;2023-03-23T00:25:50;3.78;;;2.60;;
32319;SDS011;19080;51.750;5.888;2023-03-23T00:28:18;5.65;;;3.65;;
32319;SDS011;19080;51.750;5.888;2023-03-23T00:31:03;4.65;;;3.25;;
32319;SDS011;19080;51.750;5.888;2023-03-23T00:33:34;4.80;;;2.85;;
32319;SDS011;19080;51.750;5.888;2023-03-23T00:36:09;5.72;;;3.25;;
32319;SDS011;19080;51.750;5.888;2023-03-23T00:38:37;6.38;;;3.28;;
32319;SDS011;19080;51.750;5.888;2023-03-23T00:41:03;4.65;;;2.90;;
32319;SDS011;19080;51.750;5.888;2023-03-23T00:43:30;4.10;;;3.28;;
32319;SDS011;19080;51.750;5.888;2023-03-23T00:45:56;7.40;;;3.47;;
32319;SDS011;19080;51.750;5.888;2023-03-23T00:48:28;7.13;;;3.28;;
32319;SDS011;19080;51.750;5.888;2023-03-23T00:50:54;6.68;;;2.78;;
32319;SDS011;19080;51.750;5.888;2023-03-23T00:53:21;5.30;;;3.20;;
32319;SDS011;19080;51.750;5.888;2023-03-23T00:55:47;4.15;;;2.95;;
32319;SDS011;19080;51.750;5.888;2023-03-23T00:58:14;6.43;;;3.30;;
32319;SDS011;19080;51.750;5.888;2023-03-23T01:00:41;3.67;;;3.08;;
32319;SDS011;19080;51.750;5.888;2023-03-23T01:03:07;4.75;;;3.22;;
32319;SDS011;19080;51.750;5.888;2023-03-23T01:05:40;5.80;;;3.30;;
32319;SDS011;19080;51.750;5.888;2023-03-23T01:08:06;6.70;;;3.42;;
32319;SDS011;19080;51.750;5.888;2023-03-23T01:10:32;3.47;;;3.17;;
32319;SDS011;19080;51.750;5.888;2023-03-23T01:12:59;5.55;;;3.35;;
32319;SDS011;19080;51.750;5.888;2023-03-23T01:15:26;3.65;;;2.83;;
32319;SDS011;19080;51.750;5.888;2023-03-23T01:17:52;3.63;;;3.10;;
32319;SDS011;19080;51.750;5.888;2023-03-23T01:20:18;4.47;;;3.35;;
32319;SDS011;19080;51.750;5.888;2023-03-23T01:22:44;6.95;;;3.25;;
32319;SDS011;19080;51.750;5.888;2023-03-23T01:25:10;6.03;;;3.22;;
32319;SDS011;19080;51.750;5.888;2023-03-23T01:27:37;5.85;;;3.55;;
32319;SDS011;19080;51.750;5.888;2023-03-23T01:30:04;7.43;;;3.70;;
32319;SDS011;19080;51.750;5.888;2023-03-23T01:32:30;6.32;;;3.75;;
32319;SDS011;19080;51.750;5.888;2023-03-23T01:34:56;4.63;;;3.90;;
32319;SDS011;19080;51.750;5.888;2023-03-23T01:37:22;5.88;;;3.85;;
32319;SDS011;19080;51.750;5.888;2023-03-23T01:39:55;7.28;;;3.78;;
32319;SDS011;19080;51.750;5.888;2023-03-23T01:42:22;6.03;;;3.90;;
32319;SDS011;19080;51.750;5.888;2023-03-23T01:45:38;6.22;;;3.40;;
32319;SDS011;19080;51.750;5.888;2023-03-23T01:47:52;6.35;;;3.70;;
32319;SDS011;19080;51.750;5.888;2023-03-23T01:50:21;4.28;;;3.70;;
32319;SDS011;19080;51.750;5.888;2023-03-23T01:52:50;6.65;;;3.90;;
32319;SDS011;19080;51.750;5.888;2023-03-23T01:55:17;3.80;;;3.05;;
32319;SDS011;19080;51.750;5.888;2023-03-23T01:57:45;4.07;;;3.60;;
32319;SDS011;19080;51.750;5.888;2023-03-23T02:00:14;6.80;;;2.95;;
32319;SDS011;19080;51.750;5.888;2023-03-23T02:02:47;4.68;;;3.40;;
32319;SDS011;19080;51.750;5.888;2023-03-23T02:05:21;7.05;;;3.17;;
32319;SDS011;19080;51.750;5.888;2023-03-23T02:07:52;5.15;;;3.22;;
32319;SDS011;19080;51.750;5.888;2023-03-23T02:10:20;3.20;;;2.85;;
32319;SDS011;19080;51.750;5.888;2023-03-23T02:12:46;4.70;;;3.15;;
32319;SDS011;19080;51.750;5.888;2023-03-23T02:15:12;4.55;;;3.22;;
32319;SDS011;19080;51.750;5.888;2023-03-23T02:17:53;3.90;;;3.30;;
32319;SDS011;19080;51.750;5.888;2023-03-23T02:20:36;3.92;;;3.40;;
32319;SDS011;19080;51.750;5.888;2023-03-23T02:23:14;6.38;;;3.30;;
32319;SDS011;19080;51.750;5.888;2023-03-23T02:34:51;4.10;;;3.33;;
32319;SDS011;19080;51.750;5.888;2023-03-23T02:37:27;5.30;;;3.55;;
32319;SDS011;19080;51.750;5.888;2023-03-23T02:40:02;6.05;;;3.42;;
32319;SDS011;19080;51.750;5.888;2023-03-23T02:42:36;4.32;;;3.15;;
32319;SDS011;19080;51.750;5.888;2023-03-23T02:45:07;3.67;;;3.15;;
32319;SDS011;19080;51.750;5.888;2023-03-23T02:47:34;3.63;;;2.92;;
32319;SDS011;19080;51.750;5.888;2023-03-23T02:50:02;4.25;;;3.60;;
32319;SDS011;19080;51.750;5.888;2023-03-23T02:52:30;6.88;;;3.75;;
32319;SDS011;19080;51.750;5.888;2023-03-23T02:54:58;4.32;;;2.95;;
32319;SDS011;19080;51.750;5.888;2023-03-23T02:57:26;5.18;;;3.40;;
32319;SDS011;19080;51.750;5.888;2023-03-23T02:59:54;5.60;;;3.30;;
32319;SDS011;19080;51.750;5.888;2023-03-23T03:02:34;5.63;;;3.08;;
32319;SDS011;19080;51.750;5.888;2023-03-23T03:10:23;6.45;;;3.35;;
32319;SDS011;19080;51.750;5.888;2023-03-23T03:13:11;3.80;;;2.63;;
32319;SDS011;19080;51.750;5.888;2023-03-23T03:18:54;5.32;;;2.83;;
32319;SDS011;19080;51.750;5.888;2023-03-23T03:21:28;5.32;;;3.10;;
32319;SDS011;19080;51.750;5.888;2023-03-23T03:23:58;7.07;;;3.47;;
32319;SDS011;19080;51.750;5.888;2023-03-23T03:26:28;4.63;;;3.53;;
32319;SDS011;19080;51.750;5.888;2023-03-23T03:29:01;3.70;;;2.97;;
32319;SDS011;19080;51.750;5.888;2023-03-23T03:31:28;3.88;;;2.72;;
32319;SDS011;19080;51.750;5.888;2023-03-23T03:33:57;4.60;;;2.90;;
32319;SDS011;19080;51.750;5.888;2023-03-23T03:36:27;4.70;;;3.78;;
32319;SDS011;19080;51.750;5.888;2023-03-23T03:39:06;7.13;;;2.85;;
32319;SDS011;19080;51.750;5.888;2023-03-23T03:41:36;3.38;;;2.83;;
32319;SDS011;19080;51.750;5.888;2023-03-23T03:44:03;4.25;;;2.90;;
32319;SDS011;19080;51.750;5.888;2023-03-23T03:46:30;5.22;;;2.95;;
32319;SDS011;19080;51.750;5.888;2023-03-23T03:48:57;4.72;;;3.40;;
32319;SDS011;19080;51.750;5.888;2023-03-23T03:51:24;5.07;;;3.40;;
32319;SDS011;19080;51.750;5.888;2023-03-23T03:53:52;4.13;;;3.30;;
32319;SDS011;19080;51.750;5.888;2023-03-23T03:56:19;3.50;;;3.20;;
32319;SDS011;19080;51.750;5.888;2023-03-23T03:58:53;6.07;;;3.70;;
32319;SDS011;19080;51.750;5.888;2023-03-23T04:01:35;6.10;;;3.30;;
32319;SDS011;19080;51.750;5.888;2023-03-23T04:04:02;6.95;;;3.20;;
32319;SDS011;19080;51.750;5.888;2023-03-23T04:06:33;6.18;;;3.33;;
32319;SDS011;19080;51.750;5.888;2023-03-23T04:09:03;5.72;;;3.65;;
32319;SDS011;19080;51.750;5.888;2023-03-23T04:11:35;5.82;;;3.13;;
32319;SDS011;19080;51.750;5.888;2023-03-23T04:14:30;4.82;;;3.05;;
32319;SDS011;19080;51.750;5.888;2023-03-23T04:16:56;6.50;;;3.35;;
32319;SDS011;19080;51.750;5.888;2023-03-23T04:19:23;4.88;;;3.20;;
32319;SDS011;19080;51.750;5.888;2023-03-23T04:21:49;4.53;;;2.90;;
32319;SDS011;19080;51.750;5.888;2023-03-23T04:24:16;6.20;;;3.60;;
32319;SDS011;19080;51.750;5.888;2023-03-23T04:26:47;4.18;;;2.90;;
32319;SDS011;19080;51.750;5.888;2023-03-23T04:29:21;3.25;;;2.90;;
32319;SDS011;19080;51.750;5.888;2023-03-23T04:32:05;4.50;;;2.80;;
32319;SDS011;19080;51.750;5.888;2023-03-23T04:34:37;3.88;;;2.97;;
32319;SDS011;19080;51.750;5.888;2023-03-23T04:37:02;6.60;;;3.15;;
32319;SDS011;19080;51.750;5.888;2023-03-23T04:39:30;4.75;;;2.80;;
32319;SDS011;19080;51.750;5.888;2023-03-23T04:41:59;3.35;;;2.78;;
32319;SDS011;19080;51.750;5.888;2023-03-23T04:44:45;4.63;;;2.78;;
32319;SDS011;19080;51.750;5.888;2023-03-23T04:47:20;4.32;;;2.60;;
32319;SDS011;19080;51.750;5.888;2023-03-23T04:49:52;4.93;;;2.83;;
32319;SDS011;19080;51.750;5.888;2023-03-23T04:52:26;4.70;;;2.28;;
32319;SDS011;19080;51.750;5.888;2023-03-23T04:54:55;8.75;;;2.85;;
32319;SDS011;19080;51.750;5.888;2023-03-23T04:57:22;9.43;;;2.83;;
32319;SDS011;19080;51.750;5.888;2023-03-23T05:00:08;4.88;;;2.30;;
32319;SDS011;19080;51.750;5.888;2023-03-23T05:02:40;5.38;;;2.58;;
32319;SDS011;19080;51.750;5.888;2023-03-23T05:05:06;5.90;;;2.50;;
32319;SDS011;19080;51.750;5.888;2023-03-23T05:07:33;9.18;;;2.65;;
32319;SDS011;19080;51.750;5.888;2023-03-23T05:09:59;7.63;;;2.22;;
32319;SDS011;19080;51.750;5.888;2023-03-23T05:12:28;5.95;;;2.97;;
32319;SDS011;19080;51.750;5.888;2023-03-23T05:15:00;10.50;;;2.42;;
32319;SDS011;19080;51.750;5.888;2023-03-23T05:17:28;9.80;;;2.45;;
32319;SDS011;19080;51.750;5.888;2023-03-23T05:19:57;10.55;;;2.40;;
32319;SDS011;19080;51.750;5.888;2023-03-23T05:22:35;7.40;;;2.30;;
32319;SDS011;19080;51.750;5.888;2023-03-23T05:25:03;8.93;;;2.08;;
32319;SDS011;19080;51.750;5.888;2023-03-23T05:27:33;6.22;;;2.10;;
32319;SDS011;19080;51.750;5.888;2023-03-23T05:30:05;7.53;;;2.38;;
32319;SDS011;19080;51.750;5.888;2023-03-23T05:32:33;5.60;;;1.50;;
32319;SDS011;19080;51.750;5.888;2023-03-23T05:35:13;8.02;;;2.10;;
32319;SDS011;19080;51.750;5.888;2023-03-23T05:37:38;5.75;;;1.85;;
32319;SDS011;19080;51.750;5.888;2023-03-23T05:40:07;9.90;;;1.95;;
32319;SDS011;19080;51.750;5.888;2023-03-23T05:42:33;5.85;;;1.90;;
32319;SDS011;19080;51.750;5.888;2023-03-23T05:45:08;11.45;;;2.35;;
32319;SDS011;19080;51.750;5.888;2023-03-23T05:47:37;6.57;;;1.95;;
32319;SDS011;19080;51.750;5.888;2023-03-23T05:50:08;10.40;;;2.38;;
32319;SDS011;19080;51.750;5.888;2023-03-23T05:52:35;5.05;;;1.52;;
32319;SDS011;19080;51.750;5.888;2023-03-23T05:55:04;7.85;;;1.85;;
32319;SDS011;19080;51.750;5.888;2023-03-23T05:57:34;9.73;;;2.28;;
32319;SDS011;19080;51.750;5.888;2023-03-23T06:00:04;8.65;;;1.77;;
32319;SDS011;19080;51.750;5.888;2023-03-23T06:02:46;6.45;;;1.90;;
32319;SDS011;19080;51.750;5.888;2023-03-23T06:05:18;9.27;;;1.73;;
32319;SDS011;19080;51.750;5.888;2023-03-23T06:07:49;5.35;;;1.95;;
32319;SDS011;19080;51.750;5.888;2023-03-23T06:10:16;7.70;;;1.85;;
32319;SDS011;19080;51.750;5.888;2023-03-23T06:12:46;7.00;;;1.90;;
32319;SDS011;19080;51.750;5.888;2023-03-23T06:15:40;5.20;;;1.92;;
32319;SDS011;19080;51.750;5.888;2023-03-23T06:18:09;3.70;;;1.50;;
32319;SDS011;19080;51.750;5.888;2023-03-23T06:21:10;6.57;;;2.10;;
32319;SDS011;19080;51.750;5.888;2023-03-23T06:23:47;8.05;;;2.28;;
32319;SDS011;19080;51.750;5.888;2023-03-23T06:26:15;7.57;;;1.90;;
32319;SDS011;19080;51.750;5.888;2023-03-23T06:28:45;6.78;;;1.98;;
32319;SDS011;19080;51.750;5.888;2023-03-23T06:31:12;4.88;;;1.75;;
32319;SDS011;19080;51.750;5.888;2023-03-23T06:33:39;5.32;;;2.08;;
32319;SDS011;19080;51.750;5.888;2023-03-23T06:36:06;8.02;;;2.20;;
32319;SDS011;19080;51.750;5.888;2023-03-23T06:38:43;5.63;;;2.05;;
32319;SDS011;19080;51.750;5.888;2023-03-23T06:41:10;6.60;;;2.05;;
32319;SDS011;19080;51.750;5.888;2023-03-23T06:43:36;6.18;;;2.08;;
32319;SDS011;19080;51.750;5.888;2023-03-23T06:46:17;6.45;;;2.40;;
32319;SDS011;19080;51.750;5.888;2023-03-23T06:48:51;11.73;;;2.35;;
32319;SDS011;19080;51.750;5.888;2023-03-23T06:51:21;7.53;;;2.25;;
32319;SDS011;19080;51.750;5.888;2023-03-23T06:53:50;8.55;;;2.42;;
32319;SDS011;19080;51.750;5.888;2023-03-23T06:56:16;10.93;;;2.75;;
32319;SDS011;19080;51.750;5.888;2023-03-23T06:58:42;7.97;;;2.30;;
32319;SDS011;19080;51.750;5.888;2023-03-23T07:01:08;10.57;;;2.67;;
32319;SDS011;19080;51.750;5.888;2023-03-23T07:03:40;8.88;;;2.60;;
32319;SDS011;19080;51.750;5.888;2023-03-23T07:06:09;6.88;;;2.38;;
32319;SDS011;19080;51.750;5.888;2023-03-23T07:08:43;10.18;;;2.70;;
32319;SDS011;19080;51.750;5.888;2023-03-23T07:11:14;7.70;;;1.90;;
32319;SDS011;19080;51.750;5.888;2023-03-23T07:13:40;5.82;;;2.38;;
32319;SDS011;19080;51.750;5.888;2023-03-23T07:16:06;9.45;;;2.88;;
32319;SDS011;19080;51.750;5.888;2023-03-23T07:18:32;7.05;;;2.30;;
32319;SDS011;19080;51.750;5.888;2023-03-23T07:20:59;12.30;;;3.13;;
32319;SDS011;19080;51.750;5.888;2023-03-23T07:23:30;9.15;;;2.83;;
32319;SDS011;19080;51.750;5.888;2023-03-23T07:26:04;9.40;;;2.75;;
32319;SDS011;19080;51.750;5.888;2023-03-23T07:28:46;8.98;;;3.08;;
32319;SDS011;19080;51.750;5.888;2023-03-23T07:31:21;11.48;;;2.90;;
32319;SDS011;19080;51.750;5.888;2023-03-23T07:33:48;10.07;;;2.08;;
32319;SDS011;19080;51.750;5.888;2023-03-23T07:36:14;11.68;;;3.10;;
32319;SDS011;19080;51.750;5.888;2023-03-23T07:38:40;8.52;;;2.42;;
32319;SDS011;19080;51.750;5.888;2023-03-23T07:41:06;11.10;;;2.67;;
32319;SDS011;19080;51.750;5.888;2023-03-23T07:43:36;8.95;;;2.42;;
32319;SDS011;19080;51.750;5.888;2023-03-23T07:46:10;7.47;;;2.15;;
32319;SDS011;19080;51.750;5.888;2023-03-23T07:48:57;11.73;;;2.75;;
32319;SDS011;19080;51.750;5.888;2023-03-23T07:51:29;11.18;;;2.85;;
32319;SDS011;19080;51.750;5.888;2023-03-23T07:53:55;8.63;;;2.17;;
32319;SDS011;19080;51.750;5.888;2023-03-23T07:56:42;10.65;;;2.10;;
32319;SDS011;19080;51.750;5.888;2023-03-23T07:59:14;10.20;;;2.55;;
32319;SDS011;19080;51.750;5.888;2023-03-23T08:01:41;4.95;;;2.22;;
32319;SDS011;19080;51.750;5.888;2023-03-23T08:04:25;7.38;;;2.00;;
32319;SDS011;19080;51.750;5.888;2023-03-23T08:07:10;3.78;;;1.55;;
32319;SDS011;19080;51.750;5.888;2023-03-23T08:09:47;6.00;;;1.90;;
32319;SDS011;19080;51.750;5.888;2023-03-23T08:12:31;4.55;;;1.52;;
32319;SDS011;19080;51.750;5.888;2023-03-23T08:15:15;4.63;;;1.40;;
32319;SDS011;19080;51.750;5.888;2023-03-23T08:18:04;4.20;;;1.23;;
32319;SDS011;19080;51.750;5.888;2023-03-23T08:21:06;3.22;;;1.23;;
32319;SDS011;19080;51.750;5.888;2023-03-23T08:23:47;2.58;;;0.90;;
32319;SDS011;19080;51.750;5.888;2023-03-23T08:26:40;3.17;;;0.93;;
32319;SDS011;19080;51.750;5.888;2023-03-23T08:29:24;3.45;;;0.93;;
32319;SDS011;19080;51.750;5.888;2023-03-23T08:32:13;4.43;;;0.70;;
32319;SDS011;19080;51.750;5.888;2023-03-23T08:34:51;0.98;;;0.50;;
32319;SDS011;19080;51.750;5.888;2023-03-23T08:37:41;1.63;;;0.63;;
32319;SDS011;19080;51.750;5.888;2023-03-23T08:40:23;2.38;;;0.82;;
32319;SDS011;19080;51.750;5.888;2023-03-23T08:43:09;2.38;;;1.08;;
32319;SDS011;19080;51.750;5.888;2023-03-23T08:45:55;1.52;;;0.75;;
32319;SDS011;19080;51.750;5.888;2023-03-23T08:48:39;1.75;;;0.88;;
32319;SDS011;19080;51.750;5.888;2023-03-23T08:51:32;1.65;;;1.00;;
32319;SDS011;19080;51.750;5.888;2023-03-23T08:54:10;2.15;;;0.70;;
32319;SDS011;19080;51.750;5.888;2023-03-23T08:56:54;1.40;;;0.90;;
32319;SDS011;19080;51.750;5.888;2023-03-23T08:59:35;3.20;;;1.17;;
32319;SDS011;19080;51.750;5.888;2023-03-23T09:02:24;5.10;;;1.23;;
32319;SDS011;19080;51.750;5.888;2023-03-23T09:05:04;3.85;;;1.15;;
32319;SDS011;19080;51.750;5.888;2023-03-23T09:07:47;2.13;;;1.27;;
32319;SDS011;19080;51.750;5.888;2023-03-23T09:10:14;3.38;;;1.23;;
32319;SDS011;19080;51.750;5.888;2023-03-23T09:12:42;4.32;;;1.30;;
32319;SDS011;19080;51.750;5.888;2023-03-23T09:15:09;3.17;;;1.50;;
32319;SDS011;19080;51.750;5.888;2023-03-23T09:17:38;5.60;;;1.48;;
32319;SDS011;19080;51.750;5.888;2023-03-23T09:20:06;2.67;;;1.08;;
32319;SDS011;19080;51.750;5.888;2023-03-23T09:22:39;5.53;;;1.65;;
32319;SDS011;19080;51.750;5.888;2023-03-23T09:25:07;3.08;;;1.30;;
32319;SDS011;19080;51.750;5.888;2023-03-23T09:27:34;8.10;;;1.52;;
32319;SDS011;19080;51.750;5.888;2023-03-23T09:30:03;3.47;;;1.40;;
32319;SDS011;19080;51.750;5.888;2023-03-23T09:32:32;4.88;;;1.20;;
32319;SDS011;19080;51.750;5.888;2023-03-23T09:34:58;3.22;;;1.10;;
32319;SDS011;19080;51.750;5.888;2023-03-23T09:37:24;7.88;;;1.40;;
32319;SDS011;19080;51.750;5.888;2023-03-23T09:39:49;5.50;;;1.30;;
32319;SDS011;19080;51.750;5.888;2023-03-23T09:42:18;4.18;;;1.02;;
32319;SDS011;19080;51.750;5.888;2023-03-23T09:50:50;7.47;;;1.55;;
32319;SDS011;19080;51.750;5.888;2023-03-23T09:53:23;2.80;;;1.10;;
32319;SDS011;19080;51.750;5.888;2023-03-23T09:55:54;5.15;;;1.75;;
32319;SDS011;19080;51.750;5.888;2023-03-23T09:58:36;4.15;;;1.60;;
32319;SDS011;19080;51.750;5.888;2023-03-23T10:01:31;5.63;;;1.80;;
32319;SDS011;19080;51.750;5.888;2023-03-23T10:04:06;7.25;;;1.77;;
32319;SDS011;19080;51.750;5.888;2023-03-23T10:06:37;5.97;;;1.63;;
32319;SDS011;19080;51.750;5.888;2023-03-23T10:09:04;7.78;;;1.50;;
32319;SDS011;19080;51.750;5.888;2023-03-23T10:17:17;4.47;;;1.20;;
32319;SDS011;19080;51.750;5.888;2023-03-23T10:22:35;6.75;;;1.48;;
32319;SDS011;19080;51.750;5.888;2023-03-23T10:27:59;2.58;;;1.10;;
32319;SDS011;19080;51.750;5.888;2023-03-23T10:30:31;5.60;;;1.30;;
32319;SDS011;19080;51.750;5.888;2023-03-23T10:33:05;6.40;;;1.80;;
32319;SDS011;19080;51.750;5.888;2023-03-23T10:35:40;4.38;;;1.50;;
32319;SDS011;19080;51.750;5.888;2023-03-23T10:41:09;7.35;;;1.50;;
32319;SDS011;19080;51.750;5.888;2023-03-23T10:43:36;4.05;;;1.45;;
32319;SDS011;19080;51.750;5.888;2023-03-23T10:46:05;3.88;;;1.50;;
32319;SDS011;19080;51.750;5.888;2023-03-23T10:48:45;7.18;;;1.90;;
32319;SDS011;19080;51.750;5.888;2023-03-23T10:51:13;7.38;;;1.70;;
32319;SDS011;19080;51.750;5.888;2023-03-23T10:53:45;6.35;;;1.75;;
32319;SDS011;19080;51.750;5.888;2023-03-23T10:56:25;4.88;;;1.55;;
32319;SDS011;19080;51.750;5.888;2023-03-23T10:58:53;5.70;;;1.60;;
32319;SDS011;19080;51.750;5.888;2023-03-23T11:01:27;6.05;;;1.85;;
32319;SDS011;19080;51.750;5.888;2023-03-23T11:03:55;8.25;;;2.10;;
32319;SDS011;19080;51.750;5.888;2023-03-23T11:06:26;7.20;;;1.77;;
32319;SDS011;19080;51.750;5.888;2023-03-23T11:11:31;6.68;;;1.95;;
32319;SDS011;19080;51.750;5.888;2023-03-23T11:14:02;5.55;;;1.90;;
32319;SDS011;19080;51.750;5.888;2023-03-23T11:16:53;7.28;;;2.38;;
32319;SDS011;19080;51.750;5.888;2023-03-23T11:19:30;6.07;;;1.83;;
32319;SDS011;19080;51.750;5.888;2023-03-23T11:22:08;6.65;;;1.85;;
32319;SDS011;19080;51.750;5.888;2023-03-23T11:24:44;5.85;;;2.20;;
32319;SDS011;19080;51.750;5.888;2023-03-23T11:27:13;5.65;;;1.67;;
32319;SDS011;19080;51.750;5.888;2023-03-23T11:29:54;3.90;;;1.75;;
32319;SDS011;19080;51.750;5.888;2023-03-23T11:32:23;4.95;;;1.67;;
32319;SDS011;19080;51.750;5.888;2023-03-23T11:34:54;4.10;;;1.60;;
32319;SDS011;19080;51.750;5.888;2023-03-23T11:37:25;3.63;;;1.50;;
32319;SDS011;19080;51.750;5.888;2023-03-23T11:39:59;3.83;;;1.90;;
32319;SDS011;19080;51.750;5.888;2023-03-23T11:45:17;5.55;;;2.15;;
32319;SDS011;19080;51.750;5.888;2023-03-23T11:47:50;8.48;;;4.30;;
32319;SDS011;19080;51.750;5.888;2023-03-23T11:50:32;7.32;;;2.60;;
32319;SDS011;19080;51.750;5.888;2023-03-23T11:56:11;3.97;;;1.80;;
32319;SDS011;19080;51.750;5.888;2023-03-23T11:58:41;6.25;;;2.13;;
32319;SDS011;19080;51.750;5.888;2023-03-23T12:07:01;6.90;;;1.95;;
32319;SDS011;19080;51.750;5.888;2023-03-23T12:09:48;5.00;;;2.00;;
32319;SDS011;19080;51.750;5.888;2023-03-23T12:12:22;7.07;;;2.58;;
32319;SDS011;19080;51.750;5.888;2023-03-23T12:18:03;6.88;;;1.65;;
32319;SDS011;19080;51.750;5.888;2023-03-23T12:23:21;6.40;;;1.63;;
32319;SDS011;19080;51.750;5.888;2023-03-23T12:28:50;6.45;;;1.67;;
32319;SDS011;19080;51.750;5.888;2023-03-23T12:34:20;5.32;;;1.50;;
32319;SDS011;19080;51.750;5.888;2023-03-23T12:42:38;5.95;;;1.75;;
32319;SDS011;19080;51.750;5.888;2023-03-23T12:50:30;3.58;;;1.48;;
32319;SDS011;19080;51.750;5.888;2023-03-23T12:55:45;2.88;;;1.35;;
32319;SDS011;19080;51.750;5.888;2023-03-23T12:58:19;3.67;;;1.55;;
32319;SDS011;19080;51.750;5.888;2023-03-23T13:00:57;5.20;;;2.17;;
32319;SDS011;19080;51.750;5.888;2023-03-23T13:03:28;4.78;;;1.75;;
32319;SDS011;19080;51.750;5.888;2023-03-23T13:11:34;7.03;;;2.25;;
32319;SDS011;19080;51.750;5.888;2023-03-23T13:28:25;5.85;;;2.15;;
32319;SDS011;19080;51.750;5.888;2023-03-23T13:33:29;7.40;;;2.50;;
32319;SDS011;19080;51.750;5.888;2023-03-23T13:36:01;7.63;;;2.22;;
32319;SDS011;19080;51.750;5.888;2023-03-23T13:38:32;5.22;;;1.60;;
32319;SDS011;19080;51.750;5.888;2023-03-23T13:40:58;4.47;;;1.85;;
32319;SDS011;19080;51.750;5.888;2023-03-23T13:43:34;10.32;;;2.47;;
32319;SDS011;19080;51.750;5.888;2023-03-23T13:48:50;5.88;;;2.20;;
32319;SDS011;19080;51.750;5.888;2023-03-23T13:51:46;6.88;;;2.20;;
32319;SDS011;19080;51.750;5.888;2023-03-23T14:05:39;5.45;;;2.25;;
32319;SDS011;19080;51.750;5.888;2023-03-23T14:10:56;5.68;;;1.88;;
32319;SDS011;19080;51.750;5.888;2023-03-23T14:19:23;8.63;;;2.70;;
32319;SDS011;19080;51.750;5.888;2023-03-23T14:21:53;10.13;;;2.75;;
32319;SDS011;19080;51.750;5.888;2023-03-23T14:24:22;6.32;;;2.15;;
32319;SDS011;19080;51.750;5.888;2023-03-23T14:26:50;8.73;;;2.17;;
32319;SDS011;19080;51.750;5.888;2023-03-23T14:29:18;9.95;;;2.17;;
32319;SDS011;19080;51.750;5.888;2023-03-23T14:31:53;6.57;;;2.65;;
32319;SDS011;19080;51.750;5.888;2023-03-23T14:34:21;8.95;;;2.50;;
32319;SDS011;19080;51.750;5.888;2023-03-23T14:36:49;11.02;;;3.03;;
32319;SDS011;19080;51.750;5.888;2023-03-23T14:39:18;8.13;;;2.40;;
32319;SDS011;19080;51.750;5.888;2023-03-23T14:41:47;8.53;;;2.43;;
32319;SDS011;19080;51.750;5.888;2023-03-23T14:44:18;10.73;;;2.40;;
32319;SDS011;19080;51.750;5.888;2023-03-23T14:46:48;10.30;;;2.38;;
32319;SDS011;19080;51.750;5.888;2023-03-23T14:49:15;7.43;;;2.10;;
32319;SDS011;19080;51.750;5.888;2023-03-23T14:51:51;6.90;;;1.65;;
32319;SDS011;19080;51.750;5.888;2023-03-23T14:54:22;5.30;;;2.00;;
32319;SDS011;19080;51.750;5.888;2023-03-23T14:56:51;6.57;;;1.90;;
32319;SDS011;19080;51.750;5.888;2023-03-23T14:59:18;6.00;;;1.70;;
32319;SDS011;19080;51.750;5.888;2023-03-23T15:01:44;2.97;;;1.45;;
32319;SDS011;19080;51.750;5.888;2023-03-23T15:06:43;5.20;;;1.45;;
32319;SDS011;19080;51.750;5.888;2023-03-23T15:09:16;4.70;;;1.73;;
32319;SDS011;19080;51.750;5.888;2023-03-23T15:11:49;6.88;;;1.55;;
32319;SDS011;19080;51.750;5.888;2023-03-23T15:14:26;4.63;;;1.52;;
32319;SDS011;19080;51.750;5.888;2023-03-23T15:16:55;3.28;;;1.05;;
32319;SDS011;19080;51.750;5.888;2023-03-23T15:22:04;4.88;;;1.63;;
32319;SDS011;19080;51.750;5.888;2023-03-23T15:24:43;4.82;;;1.83;;
32319;SDS011;19080;51.750;5.888;2023-03-23T15:29:45;6.03;;;1.90;;
32319;SDS011;19080;51.750;5.888;2023-03-23T15:32:11;4.80;;;1.60;;
32319;SDS011;19080;51.750;5.888;2023-03-23T15:34:37;4.65;;;1.70;;
32319;SDS011;19080;51.750;5.888;2023-03-23T15:37:05;6.20;;;1.75;;
32319;SDS011;19080;51.750;5.888;2023-03-23T15:39:42;4.72;;;1.83;;
32319;SDS011;19080;51.750;5.888;2023-03-23T15:42:22;5.40;;;2.38;;
32319;SDS011;19080;51.750;5.888;2023-03-23T15:44:57;7.70;;;2.50;;
32319;SDS011;19080;51.750;5.888;2023-03-23T15:47:36;6.32;;;1.98;;
32319;SDS011;19080;51.750;5.888;2023-03-23T15:50:11;4.55;;;2.00;;
32319;SDS011;19080;51.750;5.888;2023-03-23T15:52:53;8.77;;;2.33;;
32319;SDS011;19080;51.750;5.888;2023-03-23T15:55:26;7.70;;;2.50;;
32319;SDS011;19080;51.750;5.888;2023-03-23T15:57:55;7.07;;;2.50;;
32319;SDS011;19080;51.750;5.888;2023-03-23T16:00:24;4.47;;;2.10;;
32319;SDS011;19080;51.750;5.888;2023-03-23T16:02:56;5.43;;;2.20;;
32319;SDS011;19080;51.750;5.888;2023-03-23T16:05:25;6.70;;;2.58;;
32319;SDS011;19080;51.750;5.888;2023-03-23T16:07:53;5.47;;;2.33;;
32319;SDS011;19080;51.750;5.888;2023-03-23T16:10:20;6.22;;;2.63;;
32319;SDS011;19080;51.750;5.888;2023-03-23T16:12:49;7.72;;;2.58;;
32319;SDS011;19080;51.750;5.888;2023-03-23T16:15:16;7.32;;;2.70;;
32319;SDS011;19080;51.750;5.888;2023-03-23T16:17:43;7.18;;;2.65;;
32319;SDS011;19080;51.750;5.888;2023-03-23T16:20:11;6.65;;;2.53;;
32319;SDS011;19080;51.750;5.888;2023-03-23T16:22:47;5.85;;;2.88;;
32319;SDS011;19080;51.750;5.888;2023-03-23T16:25:15;8.13;;;2.58;;
32319;SDS011;19080;51.750;5.888;2023-03-23T16:27:42;7.10;;;2.20;;
32319;SDS011;19080;51.750;5.888;2023-03-23T16:30:12;8.15;;;2.67;;
32319;SDS011;19080;51.750;5.888;2023-03-23T16:32:41;9.05;;;2.33;;
32319;SDS011;19080;51.750;5.888;2023-03-23T16:35:09;7.85;;;2.38;;
32319;SDS011;19080;51.750;5.888;2023-03-23T16:37:36;8.48;;;2.60;;
32319;SDS011;19080;51.750;5.888;2023-03-23T16:40:03;8.93;;;2.97;;
32319;SDS011;19080;51.750;5.888;2023-03-23T16:42:31;6.82;;;2.38;;
32319;SDS011;19080;51.750;5.888;2023-03-23T16:44:57;6.72;;;2.42;;
32319;SDS011;19080;51.750;5.888;2023-03-23T16:47:24;10.07;;;2.35;;
32319;SDS011;19080;51.750;5.888;2023-03-23T16:49:51;6.55;;;2.25;;
32319;SDS011;19080;51.750;5.888;2023-03-23T16:52:19;6.13;;;2.45;;
32319;SDS011;19080;51.750;5.888;2023-03-23T16:54:46;7.20;;;2.92;;
32319;SDS011;19080;51.750;5.888;2023-03-23T16:57:13;7.95;;;2.60;;
32319;SDS011;19080;51.750;5.888;2023-03-23T16:59:39;8.50;;;2.83;;
32319;SDS011;19080;51.750;5.888;2023-03-23T17:02:06;9.55;;;2.05;;
32319;SDS011;19080;51.750;5.888;2023-03-23T17:04:37;7.10;;;2.50;;
32319;SDS011;19080;51.750;5.888;2023-03-23T17:07:08;8.80;;;2.67;;
32319;SDS011;19080;51.750;5.888;2023-03-23T17:09:35;4.88;;;2.33;;
32319;SDS011;19080;51.750;5.888;2023-03-23T17:12:01;9.30;;;3.10;;
32319;SDS011;19080;51.750;5.888;2023-03-23T17:14:28;8.25;;;3.08;;
32319;SDS011;19080;51.750;5.888;2023-03-23T17:16:55;7.50;;;2.60;;
32319;SDS011;19080;51.750;5.888;2023-03-23T17:19:22;8.05;;;2.45;;
32319;SDS011;19080;51.750;5.888;2023-03-23T17:21:48;6.97;;;2.45;;
32319;SDS011;19080;51.750;5.888;2023-03-23T17:24:16;6.22;;;2.25;;
32319;SDS011;19080;51.750;5.888;2023-03-23T17:26:44;7.20;;;2.78;;